Time;durP1;ratioP1;P1;durP2;ratioP2;P2;SDS_P1;SDS_P2;PMS_P1;PMS_P2;Temp;Humidity;BMP_temperature;BMP_pressure;BME280_temperature;BME280_humidity;BME280_pressure;Samples;Min_cycle;Max_cycle;Signal;HPM_P1;HPM_P2
2024/02/22 00:01:43;;;;;;;34.70;21.23;;;;;;;3.44;100.00;93504.03;5095813;27;20052;-70
2024/02/22 00:04:10;;;;;;;33.90;19.17;;;;;;;3.09;100.00;93465.28;5095438;28;20082;-70
2024/02/22 00:06:38;;;;;;;30.85;18.42;;;;;;;3.37;100.00;93505.63;5105010;28;20052;-70
2024/02/22 00:09:06;;;;;;;23.65;15.32;;;;;;;3.36;100.00;93507.34;5093112;27;20052;-71
2024/02/22 00:11:33;;;;;;;22.30;15.07;;;;;;;3.30;100.00;93490.22;5099027;28;20056;-71
2024/02/22 00:14:00;;;;;;;17.05;11.57;;;;;;;3.39;100.00;93504.50;5094550;28;20488;-71
2024/02/22 00:16:27;;;;;;;16.77;11.27;;;;;;;3.22;100.00;93483.38;5102519;28;20043;-71
2024/02/22 00:18:54;;;;;;;16.48;11.25;;;;;;;3.36;100.00;93491.31;5090565;28;20054;-71
2024/02/22 00:21:21;;;;;;;17.58;12.95;;;;;;;3.41;100.00;93494.16;5090299;28;20495;-73
2024/02/22 00:23:49;;;;;;;23.08;17.77;;;;;;;3.29;100.00;93481.78;5091653;28;20051;-71
2024/02/22 00:26:16;;;;;;;35.05;29.35;;;;;;;3.31;100.00;93489.25;5095565;28;20052;-71
2024/02/22 00:28:43;;;;;;;23.50;19.17;;;;;;;3.23;100.00;93489.25;5091782;28;20427;-71
2024/02/22 00:31:10;;;;;;;24.35;20.52;;;;;;;3.23;100.00;93497.66;5090860;28;20075;-71
2024/02/22 00:33:37;;;;;;;27.85;22.17;;;;;;;3.29;100.00;93489.41;5092892;28;20047;-71
2024/02/22 00:36:05;;;;;;;21.58;17.35;;;;;;;3.30;100.00;93483.41;5090014;28;20146;-71
2024/02/22 00:38:33;;;;;;;18.63;14.10;;;;;;;3.27;100.00;93481.16;5093181;28;20090;-71
2024/02/22 00:41:01;;;;;;;17.45;13.95;;;;;;;3.29;100.00;93471.63;5092943;28;20047;-71
2024/02/22 00:43:28;;;;;;;12.38;9.95;;;;;;;3.31;100.00;93468.94;5093054;28;20123;-71
2024/02/22 00:45:55;;;;;;;11.32;9.35;;;;;;;3.33;100.00;93480.53;5098962;28;20079;-71
2024/02/22 00:48:22;;;;;;;10.70;8.00;;;;;;;3.31;100.00;93467.22;5091428;28;20047;-71
2024/02/22 00:50:49;;;;;;;15.38;9.75;;;;;;;3.25;100.00;93460.22;5098536;28;20044;-70
2024/02/22 00:53:16;;;;;;;13.13;9.55;;;;;;;3.28;100.00;93457.34;5106163;28;20048;-70
2024/02/22 00:55:43;;;;;;;19.92;13.02;;;;;;;3.31;100.00;93463.88;5099774;27;20048;-70
2024/02/22 00:58:11;;;;;;;18.67;12.80;;;;;;;3.30;100.00;93463.09;5093499;28;20050;-70
2024/02/22 01:00:38;;;;;;;22.90;14.07;;;;;;;3.15;100.00;93465.44;5101900;28;20050;-70
2024/02/22 01:03:06;;;;;;;21.17;14.35;;;;;;;2.95;100.00;93459.88;5100499;28;20044;-70
2024/02/22 01:05:33;;;;;;;21.60;14.30;;;;;;;3.04;100.00;93453.84;5101304;28;20079;-71
2024/02/22 01:08:00;;;;;;;20.42;13.98;;;;;;;3.03;100.00;93443.84;5092099;28;20054;-71
2024/02/22 01:10:27;;;;;;;24.10;15.02;;;;;;;2.98;100.00;93458.75;5090628;28;20136;-71
2024/02/22 01:12:54;;;;;;;22.17;14.73;;;;;;;2.93;100.00;93456.69;5091843;28;20564;-71
2024/02/22 01:15:22;;;;;;;25.52;16.50;;;;;;;2.90;100.00;93454.47;5093847;28;20476;-71
2024/02/22 01:17:49;;;;;;;24.95;15.23;;;;;;;2.88;100.00;93446.22;5089691;28;20132;-71
2024/02/22 01:20:16;;;;;;;26.55;16.58;;;;;;;2.94;100.00;93443.88;5094112;28;20598;-71
2024/02/22 01:22:43;;;;;;;26.75;17.15;;;;;;;2.92;100.00;93444.97;5090684;28;20044;-71
2024/02/22 01:25:11;;;;;;;26.42;17.35;;;;;;;2.96;100.00;93437.84;5094122;28;20048;-71
2024/02/22 01:27:38;;;;;;;29.63;17.65;;;;;;;2.95;100.00;93439.56;5091721;28;20403;-72
2024/02/22 01:30:06;;;;;;;26.35;17.45;;;;;;;2.88;100.00;93436.84;5090798;28;20040;-72
2024/02/22 01:32:35;;;;;;;28.15;19.08;;;;;;;2.89;100.00;93440.19;5096078;28;20130;-72
2024/02/22 01:35:03;;;;;;;26.85;19.50;;;;;;;2.78;100.00;93428.63;5093753;28;20054;-72
2024/02/22 01:37:30;;;;;;;24.95;18.00;;;;;;;2.76;100.00;93430.50;5089694;28;20406;-71
2024/02/22 01:39:56;;;;;;;29.02;19.45;;;;;;;2.78;100.00;93429.38;5091555;28;20054;-72
2024/02/22 01:42:24;;;;;;;26.38;18.17;;;;;;;2.80;100.00;93424.97;5096320;28;20043;-71
2024/02/22 01:44:51;;;;;;;29.17;19.75;;;;;;;2.76;100.00;93420.34;5092410;28;20048;-70
2024/02/22 01:47:19;;;;;;;35.25;22.17;;;;;;;2.82;100.00;93418.94;5092118;28;20061;-70
2024/02/22 01:49:48;;;;;;;34.08;22.38;;;;;;;2.82;100.00;93418.94;5093026;28;20041;-71
2024/02/22 01:52:15;;;;;;;37.78;23.17;;;;;;;2.80;100.00;93419.91;5100090;28;20050;-70
2024/02/22 01:54:42;;;;;;;37.75;24.40;;;;;;;2.85;100.00;93427.03;5097469;28;20675;-70
2024/02/22 01:57:09;;;;;;;39.95;25.52;;;;;;;2.85;100.00;93424.50;5091850;28;20050;-70
2024/02/22 01:59:36;;;;;;;41.63;27.20;;;;;;;2.78;100.00;93423.53;5089213;28;20036;-71
2024/02/22 02:02:04;;;;;;;43.35;25.98;;;;;;;2.75;100.00;93417.03;5092899;28;20052;-71
2024/02/22 02:04:31;;;;;;;36.92;22.50;;;;;;;2.79;100.00;93409.91;5090498;28;20147;-71
2024/02/22 02:07:00;;;;;;;33.28;21.83;;;;;;;2.80;100.00;93409.75;5088265;28;20047;-71
2024/02/22 02:09:27;;;;;;;24.42;17.33;;;;;;;2.69;100.00;93402.44;5087941;28;20040;-71
2024/02/22 02:11:54;;;;;;;28.33;19.70;;;;;;;2.69;100.00;93391.50;5090366;28;21152;-71
2024/02/22 02:14:21;;;;;;;29.65;18.23;;;;;;;2.69;100.00;93396.56;5094303;28;20645;-71
2024/02/22 02:16:48;;;;;;;34.25;19.05;;;;;;;2.66;100.00;93392.59;5098380;28;20039;-71
2024/02/22 02:19:20;;;;;;;29.88;16.67;;;;;;;2.67;100.00;93389.09;5098463;28;20040;-70
2024/02/22 02:22:00;;;;;;;31.50;20.33;;;;;;;2.53;100.00;93382.91;5089424;28;20040;-71
2024/02/22 02:24:34;;;;;;;34.78;18.83;;;;;;;2.48;100.00;93388.44;5093071;28;20043;-71
2024/02/22 02:27:02;;;;;;;36.20;19.73;;;;;;;2.48;100.00;93387.66;5093709;28;20052;-71
2024/02/22 02:29:29;;;;;;;39.35;21.05;;;;;;;2.53;100.00;93386.25;5089605;28;20044;-71
2024/02/22 02:31:56;;;;;;;39.45;20.27;;;;;;;2.34;100.00;93348.47;5093299;28;20130;-71
2024/02/22 02:34:23;;;;;;;44.63;21.27;;;;;;;2.57;100.00;93376.56;5087644;28;20056;-71
2024/02/22 02:36:50;;;;;;;40.58;19.08;;;;;;;2.64;100.00;93374.22;5099143;28;20071;-71
2024/02/22 02:39:17;;;;;;;33.75;18.67;;;;;;;2.65;100.00;93375.78;5099978;28;20120;-70
2024/02/22 02:41:44;;;;;;;36.13;19.58;;;;;;;2.45;100.00;93332.19;5091409;28;20046;-70
2024/02/22 02:44:12;;;;;;;28.70;15.75;;;;;;;2.69;100.00;93366.13;5092635;28;20575;-72
2024/02/22 02:46:40;;;;;;;29.58;14.82;;;;;;;2.69;100.00;93372.00;5088952;28;20044;-71
2024/02/22 02:49:07;;;;;;;22.20;11.52;;;;;;;2.62;100.00;93374.38;5092417;28;20054;-70
2024/02/22 02:51:33;;;;;;;26.55;14.18;;;;;;;2.65;100.00;93368.97;5093243;28;20043;-70
2024/02/22 02:54:00;;;;;;;36.17;18.60;;;;;;;2.45;100.00;93362.63;5088485;28;20047;-71
2024/02/22 02:56:27;;;;;;;31.27;17.20;;;;;;;2.44;100.00;93369.41;5094874;28;20054;-70
2024/02/22 02:58:54;;;;;;;35.83;19.38;;;;;;;2.30;100.00;93373.34;5091699;28;20422;-70
2024/02/22 03:01:22;;;;;;;30.30;18.77;;;;;;;2.37;100.00;93373.53;5104506;28;20089;-70
2024/02/22 03:03:49;;;;;;;31.83;19.33;;;;;;;2.47;100.00;93386.06;5095795;28;20388;-70
2024/02/22 03:06:16;;;;;;;34.70;18.75;;;;;;;2.55;100.00;93383.56;5097481;28;20056;-70
2024/02/22 03:08:43;;;;;;;58.20;40.95;;;;;;;2.39;100.00;93387.63;5095093;28;20044;-71
2024/02/22 03:11:10;;;;;;;39.38;24.77;;;;;;;2.37;100.00;93391.28;5093915;28;20059;-71
2024/02/22 03:13:37;;;;;;;44.47;27.52;;;;;;;2.59;100.00;93389.88;5093549;28;20736;-70
2024/02/22 03:16:05;;;;;;;76.30;43.05;;;;;;;2.66;100.00;93383.25;5089087;28;20052;-70
2024/02/22 03:18:34;;;;;;;43.15;25.98;;;;;;;2.77;100.00;93384.69;5087586;28;20084;-71
2024/02/22 03:21:01;;;;;;;47.85;24.00;;;;;;;2.67;100.00;93378.97;5092468;28;20051;-70
2024/02/22 03:23:28;;;;;;;104.82;54.67;;;;;;;2.83;100.00;93370.59;5091016;28;20495;-70
2024/02/22 03:25:56;;;;;;;52.65;29.08;;;;;;;2.88;100.00;93365.81;5091289;28;20050;-70
2024/02/22 03:28:22;;;;;;;54.03;28.77;;;;;;;2.93;100.00;93363.59;5092461;28;20106;-70
2024/02/22 03:30:52;;;;;;;55.25;29.23;;;;;;;3.00;100.00;93371.38;5088384;28;20050;-70
2024/02/22 03:33:19;;;;;;;62.78;27.23;;;;;;;3.02;100.00;93374.53;5088122;28;20050;-70
2024/02/22 03:35:47;;;;;;;50.85;25.23;;;;;;;3.00;100.00;93371.38;5094023;28;20102;-70
2024/02/22 03:38:14;;;;;;;53.97;29.33;;;;;;;2.91;100.00;93373.13;5098465;28;20079;-70
2024/02/22 03:40:41;;;;;;;41.85;22.08;;;;;;;3.02;100.00;93366.91;5091170;28;20052;-71
2024/02/22 03:43:08;;;;;;;41.08;21.55;;;;;;;3.00;100.00;93368.06;5099947;28;20504;-70
2024/02/22 03:45:35;;;;;;;40.55;20.17;;;;;;;2.90;100.00;93361.38;5092264;28;20556;-71
2024/02/22 03:48:02;;;;;;;45.83;21.58;;;;;;;2.98;100.00;93364.88;5098941;28;20058;-71
2024/02/22 03:50:29;;;;;;;52.10;27.50;;;;;;;2.99;100.00;93374.88;5094538;28;20072;-71
2024/02/22 03:52:57;;;;;;;52.83;23.48;;;;;;;2.89;100.00;93351.38;5089838;28;20151;-71
2024/02/22 03:55:24;;;;;;;50.65;25.10;;;;;;;2.97;100.00;93363.28;5098060;28;20051;-71
2024/02/22 03:57:51;;;;;;;51.45;25.13;;;;;;;2.92;100.00;93364.53;5093737;28;20051;-71
2024/02/22 04:00:19;;;;;;;69.80;32.45;;;;;;;2.92;100.00;93364.53;5091938;28;20043;-71
2024/02/22 04:02:46;;;;;;;75.07;36.05;;;;;;;2.83;100.00;93349.50;5101848;28;20875;-71
2024/02/22 04:05:14;;;;;;;77.57;37.08;;;;;;;2.93;100.00;93371.19;5096246;28;20047;-70
2024/02/22 04:07:42;;;;;;;53.97;24.90;;;;;;;2.90;100.00;93363.94;5090610;28;20051;-70
2024/02/22 04:10:11;;;;;;;89.80;44.97;;;;;;;3.00;100.00;93365.53;5092580;28;20043;-70
2024/02/22 04:12:38;;;;;;;217.98;107.00;;;;;;;2.97;100.00;93369.16;5097765;28;20048;-70
2024/02/22 04:15:06;;;;;;;63.58;32.90;;;;;;;3.03;100.00;93363.44;5098461;28;20052;-70
2024/02/22 04:17:32;;;;;;;50.97;24.50;;;;;;;2.99;100.00;93364.72;5088084;28;20043;-70
2024/02/22 04:20:01;;;;;;;52.72;25.20;;;;;;;2.86;100.00;93352.50;5092147;28;20416;-71
2024/02/22 04:22:28;;;;;;;48.03;26.17;;;;;;;2.95;100.00;93368.50;5105208;28;20039;-71
2024/02/22 04:24:55;;;;;;;52.50;26.50;;;;;;;2.94;100.00;93365.19;5097649;28;20079;-71
2024/02/22 04:27:23;;;;;;;50.00;26.60;;;;;;;2.74;100.00;93334.25;5104528;28;20054;-71
2024/02/22 04:29:50;;;;;;;52.95;26.30;;;;;;;2.90;100.00;93363.94;5092569;28;20052;-71
2024/02/22 04:32:17;;;;;;;51.13;25.42;;;;;;;2.88;100.00;93359.97;5098853;28;20039;-71
2024/02/22 04:34:44;;;;;;;52.00;25.50;;;;;;;2.83;100.00;93357.09;5091639;28;20051;-70
2024/02/22 04:37:11;;;;;;;55.60;27.73;;;;;;;2.83;100.00;93354.56;5091249;28;20048;-70
2024/02/22 04:39:38;;;;;;;44.45;22.88;;;;;;;2.80;100.00;93355.66;5095308;28;20054;-70
2024/02/22 04:42:05;;;;;;;49.00;24.10;;;;;;;2.78;100.00;93365.97;5092831;28;20055;-70
2024/02/22 04:44:34;;;;;;;44.22;23.50;;;;;;;2.78;100.00;93362.66;5090550;28;21190;-70
2024/02/22 04:47:08;;;;;;;46.47;23.55;;;;;;;2.65;100.00;93342.81;5100924;28;20078;-70
2024/02/22 04:49:39;;;;;;;39.95;21.23;;;;;;;2.72;100.00;93355.69;5092507;28;20450;-71
2024/02/22 04:52:07;;;;;;;41.38;22.48;;;;;;;2.78;100.00;93345.69;5097291;28;20043;-71
2024/02/22 04:54:34;;;;;;;40.67;20.52;;;;;;;2.74;100.00;93341.09;5090915;28;20482;-70
2024/02/22 04:57:01;;;;;;;40.15;21.25;;;;;;;2.68;100.00;93345.03;5096353;28;20055;-70
2024/02/22 04:59:27;;;;;;;38.92;20.23;;;;;;;2.76;100.00;93352.66;5095336;28;20392;-71
2024/02/22 05:01:56;;;;;;;38.72;21.35;;;;;;;2.59;100.00;93313.03;5093244;28;20056;-70
2024/02/22 05:04:23;;;;;;;39.00;18.98;;;;;;;2.75;100.00;93345.19;5098833;28;20058;-71
2024/02/22 05:06:50;;;;;;;37.80;20.15;;;;;;;2.70;100.00;93348.22;5101322;28;20054;-70
2024/02/22 05:09:17;;;;;;;40.10;20.50;;;;;;;2.69;100.00;93361.84;5104054;28;20046;-71
2024/02/22 05:11:47;;;;;;;37.10;18.23;;;;;;;2.69;100.00;93356.78;5090543;28;20066;-71
2024/02/22 05:14:15;;;;;;;38.80;20.30;;;;;;;2.66;100.00;93360.44;5093792;28;20051;-71
2024/02/22 05:16:41;;;;;;;45.33;21.13;;;;;;;2.69;100.00;93361.06;5091670;28;20179;-71
2024/02/22 05:19:10;;;;;;;37.97;20.83;;;;;;;2.67;100.00;93356.13;5093150;28;20043;-73
2024/02/22 05:21:37;;;;;;;43.22;21.73;;;;;;;2.66;100.00;93354.56;5099711;28;20043;-71
2024/02/22 05:24:04;;;;;;;43.88;22.95;;;;;;;2.66;100.00;93362.97;5099654;28;20046;-70
2024/02/22 05:26:31;;;;;;;40.13;21.88;;;;;;;2.64;100.00;93364.06;5096085;28;20138;-71
2024/02/22 05:28:58;;;;;;;46.75;22.83;;;;;;;2.66;100.00;93362.16;5095131;28;20458;-71
2024/02/22 05:31:27;;;;;;;47.10;23.08;;;;;;;2.64;100.00;93362.31;5096671;28;20047;-71
2024/02/22 05:33:55;;;;;;;44.90;21.70;;;;;;;2.63;100.00;93370.88;5091843;28;20055;-71
2024/02/22 05:36:23;;;;;;;44.63;22.35;;;;;;;2.56;100.00;93361.50;5092964;28;20054;-70
2024/02/22 05:38:50;;;;;;;44.47;22.05;;;;;;;2.59;100.00;93367.06;5097072;28;20058;-70
2024/02/22 05:41:17;;;;;;;46.28;22.75;;;;;;;2.61;100.00;93367.72;5090185;28;20055;-70
2024/02/22 05:43:45;;;;;;;44.47;23.35;;;;;;;2.64;100.00;93367.38;5100499;28;20050;-70
2024/02/22 05:46:12;;;;;;;45.70;21.00;;;;;;;2.63;100.00;93373.41;5092997;28;20047;-71
2024/02/22 05:48:39;;;;;;;40.63;19.92;;;;;;;2.59;100.00;93367.06;5100011;28;20050;-71
2024/02/22 05:51:05;;;;;;;34.92;17.33;;;;;;;2.66;100.00;93372.31;5101907;28;20541;-70
2024/02/22 05:53:33;;;;;;;;;;;;;;;2.68;100.00;93370.41;5096738;28;20480;-71
2024/02/22 05:56:00;;;;;;;35.38;17.75;;;;;;;2.62;100.00;93376.09;5090289;28;19930;-71
2024/02/22 05:58:27;;;;;;;31.33;17.27;;;;;;;2.60;100.00;93380.53;5102238;28;20046;-71
2024/02/22 06:00:53;;;;;;;132.18;71.72;;;;;;;2.61;100.00;93382.94;5093414;28;20052;-71
2024/02/22 06:03:21;;;;;;;49.80;25.65;;;;;;;2.36;100.00;93342.31;5094161;28;20052;-71
2024/02/22 06:05:48;;;;;;;42.65;21.73;;;;;;;2.65;100.00;93388.47;5093715;28;20127;-71
2024/02/22 06:08:15;;;;;;;42.05;22.58;;;;;;;2.60;100.00;93381.31;5091279;28;20074;-71
2024/02/22 06:10:43;;;;;;;48.55;24.27;;;;;;;2.62;100.00;93392.13;5093267;28;20418;-71
2024/02/22 06:13:10;;;;;;;53.42;24.90;;;;;;;2.66;100.00;93390.06;5090325;28;20051;-71
2024/02/22 06:15:37;;;;;;;55.88;25.08;;;;;;;2.64;100.00;93372.47;5093556;28;20050;-71
2024/02/22 06:18:05;;;;;;;54.65;25.40;;;;;;;2.68;100.00;93388.16;5093173;28;20052;-70
2024/02/22 06:20:32;;;;;;;47.88;24.65;;;;;;;2.70;100.00;93388.00;5091829;28;20052;-70
2024/02/22 06:23:00;;;;;;;49.42;25.75;;;;;;;2.75;100.00;93390.84;5092754;28;22171;-70
2024/02/22 06:25:27;;;;;;;53.60;25.50;;;;;;;2.72;100.00;93388.66;5087959;28;20135;-71
2024/02/22 06:27:55;;;;;;;48.33;23.77;;;;;;;2.79;100.00;93389.59;5090328;28;20044;-70
2024/02/22 06:30:23;;;;;;;48.90;25.05;;;;;;;2.81;100.00;93385.16;5089382;28;20044;-70
2024/02/22 06:32:50;;;;;;;47.03;25.23;;;;;;;2.83;100.00;93380.75;5091011;28;20070;-70
2024/02/22 06:35:18;;;;;;;49.60;24.15;;;;;;;2.79;100.00;93370.09;5089555;28;20067;-70
2024/02/22 06:37:45;;;;;;;45.20;23.80;;;;;;;2.88;100.00;93383.56;5089762;28;20044;-70
2024/02/22 06:40:14;;;;;;;38.80;21.45;;;;;;;2.80;100.00;93381.84;5090343;28;20514;-70
2024/02/22 06:42:41;;;;;;;40.17;24.52;;;;;;;2.77;100.00;93381.34;5089135;28;20055;-70
2024/02/22 06:45:10;;;;;;;33.88;18.58;;;;;;;2.73;100.00;93375.00;5095550;28;20380;-70
2024/02/22 06:47:37;;;;;;;35.28;21.17;;;;;;;2.78;100.00;93382.94;5096282;28;20075;-70
2024/02/22 06:50:05;;;;;;;36.40;21.67;;;;;;;2.76;100.00;93377.22;5091480;28;20048;-70
2024/02/22 06:52:32;;;;;;;38.25;20.75;;;;;;;2.67;100.00;93373.88;5092749;28;20067;-70
2024/02/22 06:54:59;;;;;;;40.22;22.38;;;;;;;2.70;100.00;93377.84;5099408;28;20135;-70
2024/02/22 06:57:26;;;;;;;38.10;21.67;;;;;;;2.70;100.00;93365.97;5094973;28;20052;-70
2024/02/22 06:59:53;;;;;;;35.45;19.30;;;;;;;2.77;100.00;93382.16;5097880;28;20051;-70
2024/02/22 07:02:21;;;;;;;35.40;19.08;;;;;;;2.69;100.00;93377.09;5096822;28;20090;-70
2024/02/22 07:04:48;;;;;;;37.33;20.17;;;;;;;2.71;100.00;93380.25;5088328;28;20053;-70
2024/02/22 07:07:16;;;;;;;50.97;29.27;;;;;;;2.80;100.00;93370.88;5090460;28;20058;-70
2024/02/22 07:09:43;;;;;;;48.08;23.63;;;;;;;2.85;100.00;93372.94;5094264;28;20819;-70
2024/02/22 07:12:10;;;;;;;43.78;22.60;;;;;;;2.80;100.00;93374.22;5095516;28;20055;-70
2024/02/22 07:14:37;;;;;;;39.72;21.55;;;;;;;2.45;100.00;93365.16;5087235;28;20147;-70
2024/02/22 07:17:04;;;;;;;48.05;22.95;;;;;;;2.66;100.00;93369.78;5093034;28;20411;-71
2024/02/22 07:19:32;;;;;;;43.38;24.02;;;;;;;2.75;100.00;93358.69;5094277;28;20048;-70
2024/02/22 07:21:59;;;;;;;54.25;27.38;;;;;;;2.54;100.00;93364.19;5087971;28;20047;-70
2024/02/22 07:24:26;;;;;;;83.68;34.63;;;;;;;2.65;100.00;93360.59;5087349;28;20046;-70
2024/02/22 07:26:53;;;;;;;57.97;29.20;;;;;;;2.63;100.00;93363.28;5098224;28;20134;-70
2024/02/22 07:29:20;;;;;;;52.40;26.98;;;;;;;2.64;100.00;93362.31;5088511;28;20461;-70
2024/02/22 07:31:47;;;;;;;48.28;27.85;;;;;;;2.91;100.00;93360.44;5091630;28;20055;-70
2024/02/22 07:34:14;;;;;;;61.83;29.98;;;;;;;3.10;100.00;93360.28;5098415;28;20043;-70
2024/02/22 07:36:42;;;;;;;57.05;29.90;;;;;;;3.31;100.00;93358.03;5090378;28;20522;-70
2024/02/22 07:39:09;;;;;;;89.10;38.47;;;;;;;3.16;100.00;93350.25;5094671;28;20816;-71
2024/02/22 07:41:36;;;;;;;93.75;40.70;;;;;;;3.27;100.00;93349.16;5100795;28;20555;-71
2024/02/22 07:44:04;;;;;;;67.40;33.97;;;;;;;3.38;100.00;93349.75;5088028;28;20052;-71
2024/02/22 07:46:31;;;;;;;78.15;36.92;;;;;;;3.04;100.00;93362.50;5093819;28;20047;-71
2024/02/22 07:48:58;;;;;;;74.85;29.85;;;;;;;2.88;100.00;93358.19;5094593;28;20393;-71
2024/02/22 07:51:25;;;;;;;66.45;33.88;;;;;;;3.10;100.00;93355.19;5093012;28;20134;-71
2024/02/22 07:53:53;;;;;;;181.52;66.00;;;;;;;2.96;100.00;93357.41;5089806;28;20514;-71
2024/02/22 07:56:20;;;;;;;199.48;71.78;;;;;;;3.04;100.00;93361.69;5100739;28;20056;-71
2024/02/22 07:58:49;;;;;;;173.75;64.15;;;;;;;2.93;100.00;93350.91;5094353;28;20052;-71
2024/02/22 08:01:16;;;;;;;90.18;36.58;;;;;;;2.94;100.00;93347.44;5093661;28;20059;-71
2024/02/22 08:03:43;;;;;;;74.50;36.50;;;;;;;3.18;100.00;93355.19;5095118;28;20044;-71
2024/02/22 08:06:11;;;;;;;61.80;30.45;;;;;;;3.25;100.00;93356.13;5097482;28;20047;-71
2024/02/22 08:08:38;;;;;;;62.25;30.55;;;;;;;3.43;100.00;93358.47;5094053;28;20424;-71
2024/02/22 08:11:07;;;;;;;40.67;21.70;;;;;;;3.57;100.00;93361.31;5096032;28;20141;-71
2024/02/22 08:13:34;;;;;;;44.22;23.90;;;;;;;3.41;100.00;93345.16;5095481;28;20054;-71
2024/02/22 08:16:06;;;;;;;55.75;25.13;;;;;;;3.79;100.00;93362.34;5091552;28;20051;-71
2024/02/22 08:18:34;;;;;;;63.63;29.50;;;;;;;4.09;100.00;93365.13;5095508;28;20525;-71
2024/02/22 08:21:01;;;;;;;60.47;26.30;;;;;;;3.99;100.00;93361.97;5094219;28;20055;-71
2024/02/22 08:23:28;;;;;;;60.63;29.70;;;;;;;4.35;100.00;93360.69;5095104;28;20056;-71
2024/02/22 08:25:56;;;;;;;67.65;30.10;;;;;;;4.66;100.00;93357.31;5093690;28;20785;-71
2024/02/22 08:28:25;;;;;;;58.55;25.90;;;;;;;4.84;100.00;93357.03;5098894;28;20051;-71
2024/02/22 08:30:52;;;;;;;50.58;23.23;;;;;;;4.86;100.00;93344.16;5092835;28;20142;-71
2024/02/22 08:33:20;;;;;;;50.10;25.15;;;;;;;4.77;100.00;93290.75;5092115;28;20044;-71
2024/02/22 08:35:47;;;;;;;55.40;26.02;;;;;;;5.56;100.00;93356.75;5091136;28;20059;-71
2024/02/22 08:38:14;;;;;;;58.47;25.15;;;;;;;5.92;100.00;93352.72;5089906;28;20864;-71
2024/02/22 08:40:41;;;;;;;59.05;23.92;;;;;;;6.05;100.00;93350.34;5096452;28;20043;-72
2024/02/22 08:43:09;;;;;;;62.40;26.15;;;;;;;6.34;100.00;93353.81;5091765;28;20044;-71
2024/02/22 08:45:37;;;;;;;73.15;29.13;;;;;;;6.69;100.00;93348.09;5099571;28;20039;-71
2024/02/22 08:48:05;;;;;;;64.05;27.25;;;;;;;6.86;100.00;93343.53;5091129;28;20044;-71
2024/02/22 08:50:32;;;;;;;68.07;28.05;;;;;;;7.13;100.00;93343.75;5090528;28;20048;-71
2024/02/22 08:52:59;;;;;;;73.63;27.02;;;;;;;7.38;100.00;93339.97;5093897;28;20044;-71
2024/02/22 08:55:26;;;;;;;54.10;25.58;;;;;;;7.29;100.00;93344.44;5099927;28;20062;-71
2024/02/22 08:57:53;;;;;;;61.53;24.70;;;;;;;7.38;100.00;93343.34;5093428;28;20048;-71
2024/02/22 09:00:20;;;;;;;70.80;27.67;;;;;;;7.37;100.00;93339.22;5093113;28;20401;-71
2024/02/22 09:02:51;;;;;;;67.68;28.73;;;;;;;7.17;100.00;93334.72;5095987;28;20081;-71
2024/02/22 09:05:19;;;;;;;68.60;26.77;;;;;;;7.44;100.00;93326.47;5089359;28;20093;-71
2024/02/22 09:07:46;;;;;;;71.60;29.65;;;;;;;7.89;100.00;93323.56;5091354;28;20075;-71
2024/02/22 09:10:15;;;;;;;29.33;15.00;;;;;;;8.17;100.00;93327.81;5089912;28;20052;-71
2024/02/22 09:12:43;;;;;;;16.27;8.75;;;;;;;8.55;100.00;93332.47;5093061;28;20043;-71
2024/02/22 09:15:11;;;;;;;59.95;32.28;;;;;;;8.90;100.00;93343.56;5095334;28;20441;-71
2024/02/22 09:17:37;;;;;;;23.30;13.23;;;;;;;9.06;100.00;93332.94;5090606;28;20051;-71
2024/02/22 09:20:07;;;;;;;85.85;45.88;;;;;;;9.27;97.11;93330.38;5092545;28;20059;-71
2024/02/22 09:22:34;;;;;;;64.13;34.90;;;;;;;9.39;97.33;93310.81;5091067;28;20407;-71
2024/02/22 09:25:06;;;;;;;44.97;24.42;;;;;;;9.73;97.79;93326.94;5090392;28;20483;-72
2024/02/22 09:27:33;;;;;;;16.10;10.63;;;;;;;9.83;91.75;93323.16;5090961;28;20048;-71
2024/02/22 09:30:02;;;;;;;13.00;9.00;;;;;;;9.95;92.52;93329.25;5092581;28;20048;-71
2024/02/22 09:32:29;;;;;;;15.07;7.88;;;;;;;9.98;90.45;93323.72;5098177;28;20804;-71
2024/02/22 09:34:56;;;;;;;13.90;7.68;;;;;;;10.13;90.34;93320.91;5092975;28;20051;-71
2024/02/22 09:37:26;;;;;;;13.40;7.35;;;;;;;10.05;87.47;93316.00;5100387;28;20044;-71
2024/02/22 09:39:53;;;;;;;14.10;8.43;;;;;;;10.02;88.30;93306.13;5093035;28;20048;-71
2024/02/22 09:42:25;;;;;;;12.82;7.18;;;;;;;10.24;87.00;93319.47;5097105;28;20491;-71
2024/02/22 09:44:52;;;;;;;11.68;6.82;;;;;;;10.22;85.14;93313.75;5093807;27;20093;-71
2024/02/22 09:47:19;;;;;;;11.07;6.65;;;;;;;10.21;85.48;93311.38;5088870;28;20130;-71
2024/02/22 09:49:46;;;;;;;12.85;7.93;;;;;;;10.26;84.63;93312.34;5094423;28;20039;-71
2024/02/22 09:52:15;;;;;;;10.45;6.28;;;;;;;10.10;84.21;93297.44;5088786;28;20059;-71
2024/02/22 09:54:45;;;;;;;16.58;8.55;;;;;;;10.27;84.26;93311.34;5091898;28;20523;-71
2024/02/22 09:57:12;;;;;;;12.68;6.55;;;;;;;10.27;82.55;93301.09;5094561;28;20055;-71
2024/02/22 09:59:42;;;;;;;10.32;7.35;;;;;;;10.46;84.33;93295.31;5089108;28;20040;-71
2024/02/22 10:02:12;;;;;;;14.35;8.15;;;;;;;10.47;83.20;93296.88;5092252;28;20055;-71
2024/02/22 10:04:50;;;;;;;17.25;7.72;;;;;;;10.45;81.00;93289.38;5097712;28;20502;-71
2024/02/22 10:07:22;;;;;;;12.13;6.78;;;;;;;10.38;79.88;93289.38;5092554;28;20044;-71
2024/02/22 10:09:50;;;;;;;13.68;6.32;;;;;;;10.54;80.94;93287.34;5089749;28;20415;-71
2024/02/22 10:12:28;;;;;;;15.48;9.38;;;;;;;10.65;79.28;93284.09;5094118;28;20052;-72
2024/02/22 10:14:56;;;;;;;16.55;11.23;;;;;;;10.88;79.87;93269.91;5100834;28;20058;-71
2024/02/22 10:17:24;;;;;;;13.10;9.32;;;;;;;11.14;79.94;93265.56;5092141;28;20534;-71
2024/02/22 10:19:59;;;;;;;11.93;7.68;;;;;;;11.26;75.83;93257.16;5090029;28;20115;-71
2024/02/22 10:22:27;;;;;;;16.15;10.60;;;;;;;11.45;75.52;93263.09;5094563;28;20042;-71
2024/02/22 10:25:07;;;;;;;21.73;15.73;;;;;;;11.55;73.14;93265.16;5105235;28;20049;-71
2024/02/22 10:27:34;;;;;;;12.23;7.05;;;;;;;11.54;74.15;93251.53;5089676;28;20108;-72
2024/02/22 10:30:02;;;;;;;15.63;10.02;;;;;;;11.51;71.99;93249.38;5093724;28;20050;-71
2024/02/22 10:32:29;;;;;;;14.20;8.25;;;;;;;11.49;71.81;93251.41;5095961;28;20119;-71
2024/02/22 10:34:56;;;;;;;17.67;10.90;;;;;;;11.58;71.34;93250.09;5090329;28;20048;-71
2024/02/22 10:37:23;;;;;;;14.82;8.75;;;;;;;11.46;71.68;93239.75;5091970;28;20051;-71
2024/02/22 10:39:50;;;;;;;14.27;9.15;;;;;;;11.70;72.41;93244.22;5093507;28;20122;-71
2024/02/22 10:42:19;;;;;;;13.20;7.55;;;;;;;11.77;71.02;93237.25;5089845;28;20070;-72
2024/02/22 10:44:46;;;;;;;11.75;7.85;;;;;;;11.69;71.80;93227.22;5100519;28;20046;-72
2024/02/22 10:47:13;;;;;;;15.75;6.68;;;;;;;11.60;72.02;93230.09;5099156;28;20054;-71
2024/02/22 10:49:42;;;;;;;14.10;8.05;;;;;;;11.79;71.61;93224.16;5090070;28;20044;-71
2024/02/22 10:52:13;;;;;;;17.02;9.05;;;;;;;11.95;71.53;93218.38;5091543;28;20052;-73
2024/02/22 10:54:42;;;;;;;10.88;6.40;;;;;;;11.62;70.47;93186.16;5095834;28;20076;-73
2024/02/22 10:57:11;;;;;;;12.77;7.53;;;;;;;11.80;71.29;93208.47;5093740;28;20058;-73
2024/02/22 10:59:41;;;;;;;21.20;12.60;;;;;;;12.07;70.32;93208.19;5090868;28;20119;-73
2024/02/22 11:02:09;;;;;;;14.85;7.40;;;;;;;12.11;69.51;93201.59;5090805;28;20128;-73
2024/02/22 11:04:36;;;;;;;13.32;6.38;;;;;;;11.99;69.19;93198.94;5088310;28;20483;-72
2024/02/22 11:07:06;;;;;;;32.70;19.30;;;;;;;12.24;68.89;93199.84;5092692;28;20044;-73
2024/02/22 11:09:40;;;;;;;13.00;8.40;;;;;;;12.19;66.88;93186.81;5092214;28;20434;-73
2024/02/22 11:12:08;;;;;;;12.18;5.85;;;;;;;12.27;66.47;93197.59;5090387;28;20165;-73
2024/02/22 11:14:37;;;;;;;20.77;14.88;;;;;;;12.22;65.16;93176.88;5097789;28;20059;-73
2024/02/22 11:17:17;;;;;;;12.90;8.65;;;;;;;12.36;66.86;93187.75;5090764;28;20044;-73
2024/02/22 11:19:44;;;;;;;19.35;13.98;;;;;;;12.40;64.71;93186.31;5090800;28;20854;-73
2024/02/22 11:22:15;;;;;;;8.98;5.90;;;;;;;12.48;66.07;93177.50;5096727;28;20056;-74